sensor_id;sensor_type;location;lat;lon;timestamp;pressure;altitude;pressure_sealevel;temperature;humidity
23303;BME280;11820;48.738;9.092;2023-05-27T00:01:10;96991.00;;;16.61;100.00
23303;BME280;11820;48.738;9.092;2023-05-27T00:03:37;96993.31;;;16.51;100.00
23303;BME280;11820;48.738;9.092;2023-05-27T00:06:03;96984.94;;;16.67;100.00
23303;BME280;11820;48.738;9.092;2023-05-27T00:08:28;96989.25;;;16.55;100.00
23303;BME280;11820;48.738;9.092;2023-05-27T00:10:53;96987.44;;;16.80;100.00
23303;BME280;11820;48.738;9.092;2023-05-27T00:13:19;96983.66;;;16.52;100.00
23303;BME280;11820;48.738;9.092;2023-05-27T00:15:44;96984.41;;;16.83;100.00
23303;BME280;11820;48.738;9.092;2023-05-27T00:18:10;96996.19;;;16.92;100.00
23303;BME280;11820;48.738;9.092;2023-05-27T00:20:35;96984.88;;;16.98;100.00
23303;BME280;11820;48.738;9.092;2023-05-27T00:23:00;96991.97;;;16.91;100.00
23303;BME280;11820;48.738;9.092;2023-05-27T00:25:26;96989.44;;;17.03;100.00
23303;BME280;11820;48.738;9.092;2023-05-27T00:27:51;96994.25;;;16.57;100.00
23303;BME280;11820;48.738;9.092;2023-05-27T00:30:17;96985.63;;;16.56;100.00
23303;BME280;11820;48.738;9.092;2023-05-27T00:32:42;96986.38;;;16.63;100.00
23303;BME280;11820;48.738;9.092;2023-05-27T00:35:08;96982.50;;;16.72;100.00
23303;BME280;11820;48.738;9.092;2023-05-27T00:37:34;96985.16;;;16.66;100.00
23303;BME280;11820;48.738;9.092;2023-05-27T00:39:59;96982.88;;;16.51;100.00
23303;BME280;11820;48.738;9.092;2023-05-27T00:42:24;96984.97;;;16.36;100.00
23303;BME280;11820;48.738;9.092;2023-05-27T00:44:50;96981.50;;;16.42;100.00
23303;BME280;11820;48.738;9.092;2023-05-27T00:47:15;96980.56;;;16.37;100.00
23303;BME280;11820;48.738;9.092;2023-05-27T00:49:44;96977.72;;;16.32;100.00
23303;BME280;11820;48.738;9.092;2023-05-27T00:52:09;96980.84;;;16.23;100.00
23303;BME280;11820;48.738;9.092;2023-05-27T00:54:35;96977.59;;;16.21;100.00
23303;BME280;11820;48.738;9.092;2023-05-27T00:57:01;96972.16;;;16.35;100.00
23303;BME280;11820;48.738;9.092;2023-05-27T00:59:27;96976.50;;;16.41;100.00
23303;BME280;11820;48.738;9.092;2023-05-27T01:01:53;96974.75;;;15.98;100.00
23303;BME280;11820;48.738;9.092;2023-05-27T01:04:18;96975.50;;;16.05;100.00
23303;BME280;11820;48.738;9.092;2023-05-27T01:07:03;96980.47;;;16.13;100.00
23303;BME280;11820;48.738;9.092;2023-05-27T01:09:40;96960.50;;;15.94;100.00
23303;BME280;11820;48.738;9.092;2023-05-27T01:14:57;96969.69;;;16.09;100.00
23303;BME280;11820;48.738;9.092;2023-05-27T01:17:23;96956.66;;;16.03;100.00
23303;BME280;11820;48.738;9.092;2023-05-27T01:19:52;96953.97;;;15.78;100.00
23303;BME280;11820;48.738;9.092;2023-05-27T01:22:18;96962.81;;;15.77;100.00
23303;BME280;11820;48.738;9.092;2023-05-27T01:24:44;96959.84;;;15.67;100.00
23303;BME280;11820;48.738;9.092;2023-05-27T01:27:10;96959.47;;;15.64;100.00
23303;BME280;11820;48.738;9.092;2023-05-27T01:29:38;96955.97;;;15.83;100.00
23303;BME280;11820;48.738;9.092;2023-05-27T01:32:58;96959.84;;;16.05;100.00
23303;BME280;11820;48.738;9.092;2023-05-27T01:37:52;96954.38;;;16.13;100.00
23303;BME280;11820;48.738;9.092;2023-05-27T01:40:19;96952.88;;;15.99;100.00
23303;BME280;11820;48.738;9.092;2023-05-27T01:42:45;96955.53;;;15.86;100.00
23303;BME280;11820;48.738;9.092;2023-05-27T01:45:12;96950.00;;;15.76;100.00
23303;BME280;11820;48.738;9.092;2023-05-27T01:47:38;96955.63;;;15.73;100.00
23303;BME280;11820;48.738;9.092;2023-05-27T01:50:03;96939.97;;;15.73;100.00
23303;BME280;11820;48.738;9.092;2023-05-27T01:52:29;96934.81;;;15.60;100.00
23303;BME280;11820;48.738;9.092;2023-05-27T01:54:54;96942.81;;;15.65;100.00
23303;BME280;11820;48.738;9.092;2023-05-27T01:57:20;96940.84;;;15.60;100.00
23303;BME280;11820;48.738;9.092;2023-05-27T01:59:46;96935.38;;;15.68;100.00
23303;BME280;11820;48.738;9.092;2023-05-27T02:02:11;96935.44;;;15.55;100.00
23303;BME280;11820;48.738;9.092;2023-05-27T02:04:37;96924.78;;;15.63;100.00
23303;BME280;11820;48.738;9.092;2023-05-27T02:07:02;96925.97;;;15.61;100.00
23303;BME280;11820;48.738;9.092;2023-05-27T02:09:28;96926.06;;;15.48;100.00
23303;BME280;11820;48.738;9.092;2023-05-27T02:11:53;96931.22;;;15.54;100.00
23303;BME280;11820;48.738;9.092;2023-05-27T02:14:19;96931.28;;;15.48;100.00
23303;BME280;11820;48.738;9.092;2023-05-27T02:16:44;96933.66;;;15.49;100.00
23303;BME280;11820;48.738;9.092;2023-05-27T02:19:09;96931.69;;;15.45;100.00
23303;BME280;11820;48.738;9.092;2023-05-27T02:21:35;96933.31;;;15.33;100.00
23303;BME280;11820;48.738;9.092;2023-05-27T02:24:01;96926.84;;;15.42;100.00
23303;BME280;11820;48.738;9.092;2023-05-27T02:26:27;96929.66;;;15.47;100.00
23303;BME280;11820;48.738;9.092;2023-05-27T02:28:52;96926.91;;;15.35;100.00
23303;BME280;11820;48.738;9.092;2023-05-27T02:31:18;96929.69;;;15.40;100.00
23303;BME280;11820;48.738;9.092;2023-05-27T02:33:43;96923.31;;;15.30;100.00
23303;BME280;11820;48.738;9.092;2023-05-27T02:36:08;96922.94;;;15.20;100.00
23303;BME280;11820;48.738;9.092;2023-05-27T02:38:34;96925.78;;;14.99;100.00
23303;BME280;11820;48.738;9.092;2023-05-27T02:40:59;96925.97;;;14.91;100.00
23303;BME280;11820;48.738;9.092;2023-05-27T02:43:25;96926.59;;;14.93;100.00
23303;BME280;11820;48.738;9.092;2023-05-27T02:45:50;96930.81;;;14.87;100.00
23303;BME280;11820;48.738;9.092;2023-05-27T02:48:15;96926.59;;;14.93;100.00
23303;BME280;11820;48.738;9.092;2023-05-27T02:50:41;96924.97;;;14.98;100.00
23303;BME280;11820;48.738;9.092;2023-05-27T02:53:06;96932.97;;;15.10;100.00
23303;BME280;11820;48.738;9.092;2023-05-27T02:55:31;96929.16;;;15.06;100.00
23303;BME280;11820;48.738;9.092;2023-05-27T02:57:56;96927.03;;;14.83;100.00
23303;BME280;11820;48.738;9.092;2023-05-27T03:00:22;96932.66;;;14.80;100.00
23303;BME280;11820;48.738;9.092;2023-05-27T03:02:47;96933.03;;;14.52;100.00
23303;BME280;11820;48.738;9.092;2023-05-27T03:05:13;96919.44;;;14.69;100.00
23303;BME280;11820;48.738;9.092;2023-05-27T03:07:38;96923.19;;;14.79;100.00
23303;BME280;11820;48.738;9.092;2023-05-27T03:10:06;96913.41;;;14.75;100.00
23303;BME280;11820;48.738;9.092;2023-05-27T03:12:31;96919.81;;;14.66;100.00
23303;BME280;11820;48.738;9.092;2023-05-27T03:14:56;96926.06;;;14.59;100.00
23303;BME280;11820;48.738;9.092;2023-05-27T03:17:22;96917.81;;;14.81;100.00
23303;BME280;11820;48.738;9.092;2023-05-27T03:19:47;96916.81;;;14.82;100.00
23303;BME280;11820;48.738;9.092;2023-05-27T03:22:13;96919.19;;;14.90;100.00
23303;BME280;11820;48.738;9.092;2023-05-27T03:24:39;96916.16;;;14.93;100.00
23303;BME280;11820;48.738;9.092;2023-05-27T03:27:04;96927.84;;;14.71;100.00
23303;BME280;11820;48.738;9.092;2023-05-27T03:29:30;96920.00;;;14.84;100.00
23303;BME280;11820;48.738;9.092;2023-05-27T03:31:56;96920.66;;;14.47;100.00
23303;BME280;11820;48.738;9.092;2023-05-27T03:34:22;96912.22;;;14.58;100.00
23303;BME280;11820;48.738;9.092;2023-05-27T03:36:47;96923.03;;;14.62;100.00
23303;BME280;11820;48.738;9.092;2023-05-27T03:39:15;96916.63;;;14.64;100.00
23303;BME280;11820;48.738;9.092;2023-05-27T03:41:41;96925.06;;;14.34;100.00
23303;BME280;11820;48.738;9.092;2023-05-27T03:44:06;96920.84;;;14.39;100.00
23303;BME280;11820;48.738;9.092;2023-05-27T03:46:32;96923.63;;;14.51;100.00
23303;BME280;11820;48.738;9.092;2023-05-27T03:48:57;96921.84;;;14.51;100.00
23303;BME280;11820;48.738;9.092;2023-05-27T03:51:23;96923.25;;;14.47;100.00
23303;BME280;11820;48.738;9.092;2023-05-27T03:53:48;96921.44;;;14.54;100.00
23303;BME280;11820;48.738;9.092;2023-05-27T03:56:14;96914.25;;;14.43;100.00
23303;BME280;11820;48.738;9.092;2023-05-27T03:58:39;96920.22;;;14.63;100.00
23303;BME280;11820;48.738;9.092;2023-05-27T04:01:05;96920.84;;;14.52;100.00
23303;BME280;11820;48.738;9.092;2023-05-27T04:03:31;96919.06;;;14.40;100.00
23303;BME280;11820;48.738;9.092;2023-05-27T04:05:57;96919.84;;;14.53;100.00
23303;BME280;11820;48.738;9.092;2023-05-27T04:08:23;96924.66;;;14.17;100.00
23303;BME280;11820;48.738;9.092;2023-05-27T04:10:52;96921.44;;;14.41;100.00
23303;BME280;11820;48.738;9.092;2023-05-27T04:13:18;96916.44;;;14.53;100.00
23303;BME280;11820;48.738;9.092;2023-05-27T04:15:43;96916.66;;;14.51;100.00
23303;BME280;11820;48.738;9.092;2023-05-27T04:18:09;96920.84;;;14.59;100.00
23303;BME280;11820;48.738;9.092;2023-05-27T04:20:37;96924.47;;;14.58;100.00
23303;BME280;11820;48.738;9.092;2023-05-27T04:23:04;96924.47;;;14.58;100.00
23303;BME280;11820;48.738;9.092;2023-05-27T04:25:29;96919.44;;;14.63;100.00
23303;BME280;11820;48.738;9.092;2023-05-27T04:27:55;96924.63;;;14.24;100.00
23303;BME280;11820;48.738;9.092;2023-05-27T04:30:20;96923.66;;;14.44;100.00
23303;BME280;11820;48.738;9.092;2023-05-27T04:32:45;96924.44;;;14.45;100.00
23303;BME280;11820;48.738;9.092;2023-05-27T04:35:11;96927.25;;;14.63;100.00
23303;BME280;11820;48.738;9.092;2023-05-27T04:37:37;96924.66;;;14.56;100.00
23303;BME280;11820;48.738;9.092;2023-05-27T04:40:06;96925.25;;;14.45;100.00
23303;BME280;11820;48.738;9.092;2023-05-27T04:42:33;96925.44;;;14.37;100.00
23303;BME280;11820;48.738;9.092;2023-05-27T04:45:05;96929.88;;;14.37;100.00
23303;BME280;11820;48.738;9.092;2023-05-27T04:47:34;96927.44;;;14.55;100.00
23303;BME280;11820;48.738;9.092;2023-05-27T04:50:05;96924.25;;;14.40;100.00
23303;BME280;11820;48.738;9.092;2023-05-27T04:52:30;96921.06;;;14.18;100.00
23303;BME280;11820;48.738;9.092;2023-05-27T04:55:03;96915.03;;;14.50;100.00
23303;BME280;11820;48.738;9.092;2023-05-27T04:57:28;96915.84;;;14.57;100.00
23303;BME280;11820;48.738;9.092;2023-05-27T04:59:54;96916.25;;;14.61;100.00
23303;BME280;11820;48.738;9.092;2023-05-27T05:02:29;96919.81;;;14.66;100.00
23303;BME280;11820;48.738;9.092;2023-05-27T05:05:07;96915.06;;;14.57;100.00
23303;BME280;11820;48.738;9.092;2023-05-27T05:07:34;96911.03;;;14.48;100.00
23303;BME280;11820;48.738;9.092;2023-05-27T05:10:01;96914.59;;;14.79;100.00
23303;BME280;11820;48.738;9.092;2023-05-27T05:12:26;96909.75;;;14.95;100.00
23303;BME280;11820;48.738;9.092;2023-05-27T05:14:52;96911.97;;;14.92;100.00
23303;BME280;11820;48.738;9.092;2023-05-27T05:17:18;96913.97;;;14.96;100.00
23303;BME280;11820;48.738;9.092;2023-05-27T05:19:44;96918.56;;;15.01;100.00
23303;BME280;11820;48.738;9.092;2023-05-27T05:22:10;96921.53;;;15.04;100.00
23303;BME280;11820;48.738;9.092;2023-05-27T05:24:36;96925.16;;;15.10;100.00
23303;BME280;11820;48.738;9.092;2023-05-27T05:27:01;96913.94;;;15.09;100.00
23303;BME280;11820;48.738;9.092;2023-05-27T05:29:26;96922.53;;;15.10;100.00
23303;BME280;11820;48.738;9.092;2023-05-27T05:31:52;96927.81;;;14.84;100.00
23303;BME280;11820;48.738;9.092;2023-05-27T05:34:17;96925.38;;;15.02;100.00
23303;BME280;11820;48.738;9.092;2023-05-27T05:36:42;96928.56;;;15.10;100.00
23303;BME280;11820;48.738;9.092;2023-05-27T05:39:07;96933.41;;;14.94;100.00
23303;BME280;11820;48.738;9.092;2023-05-27T05:41:33;96935.81;;;14.95;100.00
23303;BME280;11820;48.738;9.092;2023-05-27T05:43:58;96929.56;;;15.03;100.00
23303;BME280;11820;48.738;9.092;2023-05-27T05:46:23;96930.59;;;15.02;100.00
23303;BME280;11820;48.738;9.092;2023-05-27T05:48:52;96932.59;;;15.06;100.00
23303;BME280;11820;48.738;9.092;2023-05-27T05:51:17;96934.94;;;15.21;100.00
23303;BME280;11820;48.738;9.092;2023-05-27T05:53:43;96934.56;;;15.11;100.00
23303;BME280;11820;48.738;9.092;2023-05-27T05:56:08;96928.16;;;15.07;100.00
23303;BME280;11820;48.738;9.092;2023-05-27T05:58:33;96925.78;;;14.99;100.00
23303;BME280;11820;48.738;9.092;2023-05-27T06:00:59;96919.34;;;15.08;100.00
23303;BME280;11820;48.738;9.092;2023-05-27T06:03:25;96920.50;;;15.25;100.00
23303;BME280;11820;48.738;9.092;2023-05-27T06:05:50;96916.88;;;15.26;100.00
23303;BME280;11820;48.738;9.092;2023-05-27T06:08:16;96920.44;;;15.44;100.00
23303;BME280;11820;48.738;9.092;2023-05-27T06:10:41;96922.13;;;15.13;100.00
23303;BME280;11820;48.738;9.092;2023-05-27T06:13:06;96925.47;;;15.46;100.00
23303;BME280;11820;48.738;9.092;2023-05-27T06:15:35;96927.69;;;15.36;100.00
23303;BME280;11820;48.738;9.092;2023-05-27T06:18:01;96921.69;;;15.35;100.00
23303;BME280;11820;48.738;9.092;2023-05-27T06:20:26;96923.50;;;15.35;100.00
23303;BME280;11820;48.738;9.092;2023-05-27T06:22:51;96929.63;;;15.53;100.00
23303;BME280;11820;48.738;9.092;2023-05-27T06:25:17;96923.25;;;15.43;100.00
23303;BME280;11820;48.738;9.092;2023-05-27T06:27:42;96915.56;;;15.61;100.00
23303;BME280;11820;48.738;9.092;2023-05-27T06:30:08;96922.03;;;15.45;100.00
23303;BME280;11820;48.738;9.092;2023-05-27T06:32:33;96912.16;;;15.60;100.00
23303;BME280;11820;48.738;9.092;2023-05-27T06:34:58;96911.16;;;15.61;100.00
23303;BME280;11820;48.738;9.092;2023-05-27T06:37:24;96913.81;;;15.86;100.00
23303;BME280;11820;48.738;9.092;2023-05-27T06:39:49;96916.25;;;15.81;100.00
23303;BME280;11820;48.738;9.092;2023-05-27T06:42:14;96912.97;;;15.92;100.00
23303;BME280;11820;48.738;9.092;2023-05-27T06:44:40;96915.88;;;16.08;100.00
23303;BME280;11820;48.738;9.092;2023-05-27T06:47:05;96905.94;;;16.23;100.00
23303;BME280;11820;48.738;9.092;2023-05-27T06:49:31;96914.16;;;16.27;100.00
23303;BME280;11820;48.738;9.092;2023-05-27T06:51:56;96917.50;;;16.33;100.00
23303;BME280;11820;48.738;9.092;2023-05-27T06:54:21;96917.69;;;16.38;100.00
23303;BME280;11820;48.738;9.092;2023-05-27T06:56:47;96918.94;;;16.36;100.00
23303;BME280;11820;48.738;9.092;2023-05-27T06:59:12;96915.59;;;16.47;100.00
23303;BME280;11820;48.738;9.092;2023-05-27T07:01:37;96917.91;;;16.37;100.00
23303;BME280;11820;48.738;9.092;2023-05-27T07:04:03;96916.56;;;16.52;100.00
23303;BME280;11820;48.738;9.092;2023-05-27T07:06:28;96912.28;;;16.58;100.00
23303;BME280;11820;48.738;9.092;2023-05-27T07:08:54;96915.13;;;16.56;100.00
23303;BME280;11820;48.738;9.092;2023-05-27T07:11:19;96914.31;;;16.56;100.00
23303;BME280;11820;48.738;9.092;2023-05-27T07:13:45;96913.25;;;16.63;100.00
23303;BME280;11820;48.738;9.092;2023-05-27T07:16:10;96912.38;;;16.69;100.00
23303;BME280;11820;48.738;9.092;2023-05-27T07:18:35;96924.22;;;16.72;100.00
23303;BME280;11820;48.738;9.092;2023-05-27T07:21:01;96919.16;;;16.77;100.00
23303;BME280;11820;48.738;9.092;2023-05-27T07:23:26;96930.25;;;16.72;100.00
23303;BME280;11820;48.738;9.092;2023-05-27T07:25:51;96919.09;;;16.83;100.00
23303;BME280;11820;48.738;9.092;2023-05-27T07:28:17;96911.72;;;16.98;100.00
23303;BME280;11820;48.738;9.092;2023-05-27T07:30:42;96925.81;;;16.97;100.00
23303;BME280;11820;48.738;9.092;2023-05-27T07:33:07;96920.97;;;16.94;100.00
23303;BME280;11820;48.738;9.092;2023-05-27T07:35:33;96917.34;;;16.95;100.00
23303;BME280;11820;48.738;9.092;2023-05-27T07:37:58;96914.63;;;17.08;100.00
23303;BME280;11820;48.738;9.092;2023-05-27T07:40:23;96915.72;;;17.19;100.00
23303;BME280;11820;48.738;9.092;2023-05-27T07:42:49;96916.56;;;17.31;100.00
23303;BME280;11820;48.738;9.092;2023-05-27T07:45:14;96915.25;;;17.22;100.00
23303;BME280;11820;48.738;9.092;2023-05-27T07:47:40;96916.66;;;17.24;100.00
23303;BME280;11820;48.738;9.092;2023-05-27T07:50:06;96913.53;;;17.34;100.00
23303;BME280;11820;48.738;9.092;2023-05-27T07:52:32;96915.78;;;17.30;100.00
23303;BME280;11820;48.738;9.092;2023-05-27T07:54:57;96909.69;;;17.36;100.00
23303;BME280;11820;48.738;9.092;2023-05-27T07:57:23;96908.72;;;17.49;100.00
23303;BME280;11820;48.738;9.092;2023-05-27T07:59:48;96901.53;;;17.44;100.00
23303;BME280;11820;48.738;9.092;2023-05-27T08:02:13;96902.16;;;17.58;100.00
23303;BME280;11820;48.738;9.092;2023-05-27T08:04:39;96903.88;;;17.52;100.00
23303;BME280;11820;48.738;9.092;2023-05-27T08:07:05;96901.38;;;17.75;100.00
23303;BME280;11820;48.738;9.092;2023-05-27T08:09:30;96901.69;;;17.79;100.00
23303;BME280;11820;48.738;9.092;2023-05-27T08:11:57;96900.34;;;17.76;100.00
23303;BME280;11820;48.738;9.092;2023-05-27T08:14:22;96897.66;;;17.94;100.00
23303;BME280;11820;48.738;9.092;2023-05-27T08:16:49;96893.56;;;17.98;100.00
23303;BME280;11820;48.738;9.092;2023-05-27T08:19:16;96894.38;;;17.98;100.00
23303;BME280;11820;48.738;9.092;2023-05-27T08:21:41;96896.31;;;18.03;100.00
23303;BME280;11820;48.738;9.092;2023-05-27T08:24:06;96900.28;;;18.05;100.00
23303;BME280;11820;48.738;9.092;2023-05-27T08:26:32;96897.19;;;17.97;100.00
23303;BME280;11820;48.738;9.092;2023-05-27T08:28:57;96884.59;;;18.05;100.00
23303;BME280;11820;48.738;9.092;2023-05-27T08:31:22;96879.63;;;18.15;100.00
23303;BME280;11820;48.738;9.092;2023-05-27T08:33:47;96879.94;;;18.19;100.00
23303;BME280;11820;48.738;9.092;2023-05-27T08:36:13;96877.50;;;18.35;100.00
23303;BME280;11820;48.738;9.092;2023-05-27T08:38:40;96875.16;;;18.16;100.00
23303;BME280;11820;48.738;9.092;2023-05-27T08:41:05;96881.47;;;18.26;100.00
23303;BME280;11820;48.738;9.092;2023-05-27T08:43:32;96871.28;;;18.07;100.00
23303;BME280;11820;48.738;9.092;2023-05-27T08:46:00;96864.69;;;18.16;100.00
23303;BME280;11820;48.738;9.092;2023-05-27T08:48:26;96872.25;;;18.47;100.00
23303;BME280;11820;48.738;9.092;2023-05-27T08:50:51;96865.22;;;18.59;100.00
23303;BME280;11820;48.738;9.092;2023-05-27T08:53:17;96868.50;;;18.54;100.00
23303;BME280;11820;48.738;9.092;2023-05-27T08:55:44;96860.56;;;18.61;100.00
23303;BME280;11820;48.738;9.092;2023-05-27T08:58:10;96865.78;;;18.61;100.00
23303;BME280;11820;48.738;9.092;2023-05-27T09:00:36;96868.97;;;18.74;100.00
23303;BME280;11820;48.738;9.092;2023-05-27T09:03:01;96867.84;;;18.82;100.00
23303;BME280;11820;48.738;9.092;2023-05-27T09:05:28;96853.91;;;18.81;100.00
23303;BME280;11820;48.738;9.092;2023-05-27T09:07:54;96857.91;;;18.84;100.00
23303;BME280;11820;48.738;9.092;2023-05-27T09:10:21;96855.38;;;19.00;100.00
23303;BME280;11820;48.738;9.092;2023-05-27T09:12:46;96858.78;;;19.01;100.00
23303;BME280;11820;48.738;9.092;2023-05-27T09:15:12;96859.78;;;19.11;100.00
23303;BME280;11820;48.738;9.092;2023-05-27T09:17:42;96858.09;;;19.17;100.00
23303;BME280;11820;48.738;9.092;2023-05-27T09:20:09;96855.34;;;19.23;100.00
23303;BME280;11820;48.738;9.092;2023-05-27T09:22:36;96851.69;;;19.13;100.00
23303;BME280;11820;48.738;9.092;2023-05-27T09:25:02;96855.09;;;19.25;100.00
23303;BME280;11820;48.738;9.092;2023-05-27T09:27:29;96854.03;;;19.37;100.00
23303;BME280;11820;48.738;9.092;2023-05-27T09:29:55;96849.34;;;19.39;100.00
23303;BME280;11820;48.738;9.092;2023-05-27T09:32:30;96846.72;;;19.39;100.00
23303;BME280;11820;48.738;9.092;2023-05-27T09:34:57;96842.03;;;19.53;100.00
23303;BME280;11820;48.738;9.092;2023-05-27T09:37:26;96842.38;;;19.72;100.00
23303;BME280;11820;48.738;9.092;2023-05-27T09:40:06;96841.59;;;19.72;100.00
23303;BME280;11820;48.738;9.092;2023-05-27T09:42:46;96829.31;;;19.77;100.00
23303;BME280;11820;48.738;9.092;2023-05-27T09:45:14;96838.38;;;19.98;100.00
23303;BME280;11820;48.738;9.092;2023-05-27T09:47:47;96841.31;;;20.01;100.00
23303;BME280;11820;48.738;9.092;2023-05-27T09:50:13;96838.63;;;20.13;100.00
23303;BME280;11820;48.738;9.092;2023-05-27T09:52:43;96840.88;;;20.21;100.00
23303;BME280;11820;48.738;9.092;2023-05-27T09:55:09;96828.44;;;20.33;100.00
23303;BME280;11820;48.738;9.092;2023-05-27T09:57:36;96824.53;;;20.35;100.00
23303;BME280;11820;48.738;9.092;2023-05-27T10:00:06;96826.28;;;20.30;100.00
23303;BME280;11820;48.738;9.092;2023-05-27T10:02:41;96824.75;;;20.50;100.00
23303;BME280;11820;48.738;9.092;2023-05-27T10:05:07;96819.00;;;20.53;99.80
23303;BME280;11820;48.738;9.092;2023-05-27T10:07:36;96818.31;;;20.79;99.48
23303;BME280;11820;48.738;9.092;2023-05-27T10:10:07;96813.91;;;20.63;97.81
23303;BME280;11820;48.738;9.092;2023-05-27T10:12:34;96816.34;;;20.86;97.33
23303;BME280;11820;48.738;9.092;2023-05-27T10:15:01;96810.66;;;20.94;99.27
23303;BME280;11820;48.738;9.092;2023-05-27T10:17:26;96815.47;;;21.02;96.37
23303;BME280;11820;48.738;9.092;2023-05-27T10:19:57;96816.91;;;20.88;94.07
23303;BME280;11820;48.738;9.092;2023-05-27T10:22:23;96812.91;;;20.86;96.47
23303;BME280;11820;48.738;9.092;2023-05-27T10:24:48;96808.81;;;21.16;96.12
23303;BME280;11820;48.738;9.092;2023-05-27T10:27:15;96806.13;;;21.33;95.56
23303;BME280;11820;48.738;9.092;2023-05-27T10:29:40;96810.59;;;21.32;94.42
23303;BME280;11820;48.738;9.092;2023-05-27T10:32:06;96807.91;;;21.06;93.04
23303;BME280;11820;48.738;9.092;2023-05-27T10:34:35;96803.34;;;21.44;94.80
23303;BME280;11820;48.738;9.092;2023-05-27T10:37:01;96795.97;;;21.67;94.06
23303;BME280;11820;48.738;9.092;2023-05-27T10:39:26;96793.16;;;21.52;92.44
23303;BME280;11820;48.738;9.092;2023-05-27T10:41:53;96790.00;;;21.50;94.64
23303;BME280;11820;48.738;9.092;2023-05-27T10:44:36;96792.63;;;21.77;91.49
23303;BME280;11820;48.738;9.092;2023-05-27T10:47:02;96788.50;;;21.86;89.85
23303;BME280;11820;48.738;9.092;2023-05-27T10:49:28;96784.53;;;21.83;88.08
23303;BME280;11820;48.738;9.092;2023-05-27T10:52:05;96783.63;;;21.99;89.88
23303;BME280;11820;48.738;9.092;2023-05-27T10:54:33;96781.53;;;22.01;89.32
23303;BME280;11820;48.738;9.092;2023-05-27T10:57:02;96781.78;;;22.05;88.07
23303;BME280;11820;48.738;9.092;2023-05-27T10:59:33;96775.44;;;22.01;85.75
23303;BME280;11820;48.738;9.092;2023-05-27T11:02:03;96773.41;;;22.08;86.19
23303;BME280;11820;48.738;9.092;2023-05-27T11:04:37;96782.25;;;22.28;86.31
23303;BME280;11820;48.738;9.092;2023-05-27T11:07:03;96774.53;;;22.17;84.42
23303;BME280;11820;48.738;9.092;2023-05-27T11:09:29;96766.69;;;22.32;85.51
23303;BME280;11820;48.738;9.092;2023-05-27T11:11:55;96770.34;;;22.26;84.68
23303;BME280;11820;48.738;9.092;2023-05-27T11:14:21;96777.88;;;22.39;83.72
23303;BME280;11820;48.738;9.092;2023-05-27T11:16:47;96774.75;;;22.47;84.32
23303;BME280;11820;48.738;9.092;2023-05-27T11:19:16;96774.25;;;22.55;83.42
23303;BME280;11820;48.738;9.092;2023-05-27T11:21:45;96764.56;;;22.65;83.48
23303;BME280;11820;48.738;9.092;2023-05-27T11:24:15;96758.81;;;22.73;82.50
23303;BME280;11820;48.738;9.092;2023-05-27T11:26:43;96749.06;;;22.84;82.55
23303;BME280;11820;48.738;9.092;2023-05-27T11:29:10;96755.47;;;22.98;83.41
23303;BME280;11820;48.738;9.092;2023-05-27T11:31:36;96750.16;;;22.88;80.83
23303;BME280;11820;48.738;9.092;2023-05-27T11:34:11;96747.66;;;22.61;80.90
23303;BME280;11820;48.738;9.092;2023-05-27T11:36:37;96749.84;;;22.74;81.26
23303;BME280;11820;48.738;9.092;2023-05-27T11:39:03;96736.81;;;22.58;77.44
23303;BME280;11820;48.738;9.092;2023-05-27T11:41:29;96746.94;;;22.76;80.74
23303;BME280;11820;48.738;9.092;2023-05-27T11:44:05;96742.78;;;22.90;78.74
23303;BME280;11820;48.738;9.092;2023-05-27T11:46:41;96729.59;;;22.90;76.74
23303;BME280;11820;48.738;9.092;2023-05-27T11:49:08;96732.88;;;23.26;79.57
23303;BME280;11820;48.738;9.092;2023-05-27T11:51:36;96730.22;;;23.21;75.77
23303;BME280;11820;48.738;9.092;2023-05-27T11:54:02;96726.94;;;22.90;75.26
23303;BME280;11820;48.738;9.092;2023-05-27T11:56:28;96723.28;;;23.01;74.94
23303;BME280;11820;48.738;9.092;2023-05-27T11:58:54;96720.72;;;23.25;77.57
23303;BME280;11820;48.738;9.092;2023-05-27T12:01:20;96724.47;;;23.59;75.78
23303;BME280;11820;48.738;9.092;2023-05-27T12:03:45;96712.06;;;23.60;74.31
23303;BME280;11820;48.738;9.092;2023-05-27T12:06:11;96701.78;;;23.83;74.24
23303;BME280;11820;48.738;9.092;2023-05-27T12:08:36;96699.91;;;23.79;71.15
23303;BME280;11820;48.738;9.092;2023-05-27T12:11:03;96695.16;;;23.66;71.17
23303;BME280;11820;48.738;9.092;2023-05-27T12:13:29;96697.25;;;23.64;70.92
23303;BME280;11820;48.738;9.092;2023-05-27T12:15:54;96696.19;;;23.70;70.89
23303;BME280;11820;48.738;9.092;2023-05-27T12:18:20;96685.38;;;23.76;72.06
23303;BME280;11820;48.738;9.092;2023-05-27T12:20:45;96684.59;;;23.81;71.48
23303;BME280;11820;48.738;9.092;2023-05-27T12:23:11;96680.06;;;24.06;72.03
23303;BME280;11820;48.738;9.092;2023-05-27T12:25:37;96676.66;;;24.01;70.70
23303;BME280;11820;48.738;9.092;2023-05-27T12:28:02;96675.59;;;23.92;70.43
23303;BME280;11820;48.738;9.092;2023-05-27T12:30:28;96663.97;;;23.93;69.46
23303;BME280;11820;48.738;9.092;2023-05-27T12:32:53;96660.50;;;24.07;68.91
23303;BME280;11820;48.738;9.092;2023-05-27T12:35:19;96671.09;;;24.07;67.98
23303;BME280;11820;48.738;9.092;2023-05-27T12:37:45;96665.19;;;24.35;67.95
23303;BME280;11820;48.738;9.092;2023-05-27T12:40:10;96671.53;;;24.44;66.65
23303;BME280;11820;48.738;9.092;2023-05-27T12:42:40;96658.41;;;24.14;66.10
23303;BME280;11820;48.738;9.092;2023-05-27T12:45:05;96661.75;;;24.35;62.88
23303;BME280;11820;48.738;9.092;2023-05-27T12:47:32;96662.59;;;24.25;64.55
23303;BME280;11820;48.738;9.092;2023-05-27T12:49:57;96664.66;;;24.43;63.58
23303;BME280;11820;48.738;9.092;2023-05-27T12:52:22;96667.22;;;24.68;64.71
23303;BME280;11820;48.738;9.092;2023-05-27T12:54:48;96661.47;;;24.51;62.92